• Join FlightAware (Why Join?)
  • Login
  • US Flag 
11:13PM EDT


 

Airport Tracker/Info


-or-


 

Live Flight TrackerFlight Track Log ✈ C-GMYM ✈ 15-Aug-2013 ✈ CZBA - KMDW

Flight Track Log - Related Links

Times and Time Zones

All times are in EDT time to prevent confusion due to time zone crossing. See the C-GMYM flight status page for this flight to view local times or setup timezone preferences in your user account.

Time Position Orientation Groundspeed Altitude Reporting Facility
EDT Latitude Longitude Course Direction KTS MPH feet Rate Location/Type
09:23AM 43.4500 -79.8667 216° Southwest 100 115 1,600  Level Toronto Center
09:24AM 43.4333 -79.8833 216° Southwest 120 138 2,700 720 Climbing Toronto Center
09:25AM 43.4167 -79.9333 245° Southwest 120 138 3,100 180 Climbing Toronto Center
09:26AM 43.3833 -79.9500 200° South 150 173 3,100 480 Level Toronto Center
09:27AM 43.3500 -80.0000 227° Southwest 150 173 4,100 960 Climbing Toronto Center
09:28AM 43.3333 -80.0167 216° Southwest 120 138 5,100 900 Climbing Toronto Center
09:29AM 43.3000 -80.0667 228° Southwest 110 127 6,000 480 Climbing Toronto Center
09:30AM 43.2833 -80.0833 216° Southwest 130 150 6,100  Climbing Toronto Center
09:31AM 43.2500 -80.1333 228° Southwest 140 161 6,000 -60 Descending Toronto Center
09:32AM 43.2167 -80.1833 228° Southwest 150 173 6,000  Level Toronto Center
09:33AM 43.1833 -80.2333 228° Southwest 150 173 6,000  Level Toronto Center
09:34AM 43.1667 -80.2500 216° Southwest 150 173 6,100  Climbing Toronto Center
09:35AM 43.1333 -80.3000 228° Southwest 150 173 6,000 -60 Descending Toronto Center
09:36AM 43.1000 -80.3333 216° Southwest 150 173 6,000  Level Toronto Center
09:37AM 43.0667 -80.3833 228° Southwest 150 173 6,000  Level Toronto Center
09:38AM 43.0333 -80.4333 228° Southwest 150 173 6,000  Level Toronto Center
09:39AM 43.0167 -80.4500 216° Southwest 150 173 6,000  Level Toronto Center
09:40AM 42.9833 -80.5000 228° Southwest 150 173 6,000  Level Toronto Center
09:41AM 42.9500 -80.5500 228° Southwest 150 173 6,000  Level Toronto Center
09:42AM 42.9167 -80.5833 216° Southwest 150 173 6,000  Level Toronto Center
09:43AM 42.8833 -80.6167 216° Southwest 150 173 6,000  Level Toronto Center
09:44AM 42.8667 -80.6500 236° Southwest 150 173 6,000  Level Toronto Center
09:45AM 42.8333 -80.7000 228° Southwest 150 173 6,000  Level Toronto Center
09:46AM 42.8000 -80.7500 228° Southwest 150 173 6,000  Level Toronto Center
09:47AM 42.7667 -80.7833 216° Southwest 150 173 6,000  Level Toronto Center
09:48AM 42.7333 -80.8167 216° Southwest 150 173 6,000  Level Toronto Center
09:49AM 42.7000 -80.8500 216° Southwest 150 173 6,000  Level Toronto Center
09:50AM 42.6833 -80.9000 246° West 150 173 6,000  Level Toronto Center
09:51AM 42.6667 -80.9667 251° West 150 173 6,000  Level Toronto Center
09:52AM 42.6667 -81.0167 270° West 150 173 6,000  Level Toronto Center
09:53AM 42.6500 -81.0667 246° West 150 173 6,000  Level Toronto Center
09:54AM 42.6333 -81.1333 251° West 150 173 6,000  Level Toronto Center
09:55AM 42.6333 -81.1667 270° West 150 173 6,000  Level Toronto Center
09:56AM 42.6167 -81.2333 251° West 150 173 6,000  Level Toronto Center
09:57AM 42.6000 -81.2833 246° West 150 173 6,000  Level Toronto Center
09:58AM 42.6000 -81.3333 270° West 150 173 6,000  Level Toronto Center
09:59AM 42.5833 -81.4000 251° West 160 184 6,000  Level Toronto Center
10:00AM 42.5833 -81.4500 270° West 150 173 6,000  Level Toronto Center
10:01AM 42.5667 -81.5167 251° West 150 173 6,000  Level Toronto Center
10:02AM 42.5500 -81.5500 236° Southwest 150 173 6,000  Level Toronto Center
10:03AM 42.5500 -81.6167 270° West 150 173 6,000  Level Toronto Center
10:04AM 42.5333 -81.6667 246° West 150 173 6,000  Level Toronto Center
10:05AM 42.5167 -81.7333 251° West 150 173 6,000  Level Toronto Center
10:06AM 42.5167 -81.7833 270° West 150 173 6,000  Level Toronto Center
10:07AM 42.5000 -81.8500 251° West 150 173 6,000  Level Toronto Center
10:08AM 42.4833 -81.9000 246° West 150 173 6,000  Level Toronto Center
10:09AM 42.4667 -81.9667 251° West 150 173 6,000  Level Toronto Center
10:10AM 42.4500 -82.0000 236° Southwest 150 173 6,000  Level Toronto Center
10:11AM 42.4500 -82.0667 270° West 150 173 6,000  Level Toronto Center
10:12AM 42.4333 -82.1167 246° West 150 173 6,000  Level Toronto Center
10:13AM 42.4167 -82.1833 251° West 150 173 6,000  Level Toronto Center
10:15AM 42.4144 -82.2678 268° West 160 184 6,000  Level Cleveland Center
10:15AM 42.4097 -82.3042 260° West 152 175 6,000  Level Cleveland Center
10:16AM 42.4008 -82.3378 250° West 153 176 6,000  Level Cleveland Center
10:17AM 42.3900 -82.3794 251° West 160 184 6,000  Level Cleveland Center
10:18AM 42.3786 -82.4328 254° West 160 184 6,000  Level Cleveland Center
10:19AM 42.3653 -82.4883 252° West 154 177 6,000  Level Cleveland Center
10:20AM 42.3558 -82.5500 258° West 154 177 6,000  Level Cleveland Center
10:21AM 42.3422 -82.6086 253° West 153 176 6,000  Level Cleveland Center
10:22AM 42.3292 -82.6475 246° West 159 183 6,000  Level Cleveland Center
10:23AM 42.3156 -82.7006 251° West 159 183 6,000  Level Cleveland Center
10:24AM 42.2939 -82.7531 241° Southwest 159 183 6,000  Level Cleveland Center
10:25AM 42.2719 -82.8000 238° Southwest 159 183 6,000  Level Cleveland Center
10:26AM 42.2392 -82.8803 241° Southwest 158 182 6,000  Level Cleveland Center
10:27AM 42.2194 -82.9244 239° Southwest 157 181 6,000  Level Cleveland Center
10:28AM 42.2017 -82.9797 247° West 158 182 6,000  Level Cleveland Center
10:29AM 42.1861 -83.0353 249° West 156 180 6,000  Level Cleveland Center
10:30AM 42.1825 -83.0994 266° West 160 184 6,000  Level Cleveland Center
10:31AM 42.1917 -83.1589 282° West 162 186 6,000  Level Cleveland Center
10:32AM 42.2092 -83.2156 293° West 159 183 6,000  Level Cleveland Center
10:33AM 42.2267 -83.2694 294° West 159 183 6,000  Level Cleveland Center
10:34AM 42.2419 -83.3264 290° West 158 182 6,000  Level Cleveland Center
10:35AM 42.2572 -83.3858 289° West 158 182 6,000  Level Cleveland Center
10:36AM 42.2558 -83.4419 268° West 154 177 6,000  Level Cleveland Center
10:37AM 42.2542 -83.5008 268° West 160 184 6,000  Level Cleveland Center
10:38AM 42.2403 -83.5592 252° West 164 189 6,000  Level Cleveland Center
10:39AM 42.2200 -83.6225 247° West 164 189 6,000  Level Cleveland Center
10:40AM 42.2058 -83.6808 252° West 167 192 6,000  Level Cleveland Center
10:42AM 42.1864 -83.7470 248° West  Level FlightAware Approximate
10:49AM 42.0794 -84.1074 248° West  Level FlightAware Approximate
10:50AM 42.0640 -84.1590 249° West  Level FlightAware Approximate
10:51AM 42.0490 -84.2105 249° West  Level FlightAware Approximate
10:52AM 42.0340 -84.2621 249° West  Level FlightAware Approximate
10:53AM 42.0189 -84.3136 249° West  Level FlightAware Approximate
10:54AM 42.0038 -84.3651 248° West  Level FlightAware Approximate
10:55AM 41.9887 -84.4165 248° West  Level FlightAware Approximate
10:56AM 41.9736 -84.4679 248° West  Level FlightAware Approximate
10:57AM 41.9585 -84.5194 248° West  Level FlightAware Approximate
10:57AM 41.9261 -84.6714 250° West 174 200 6,100  Level Chicago Center
10:58AM 41.9433 -84.5707 248° West  Level FlightAware Approximate
10:58AM 41.9086 -84.7319 249° West 175 201 6,100  Level Chicago Center
10:59AM 41.9281 -84.6221 248° West  Level FlightAware Approximate
10:59AM 41.8886 -84.8047 250° West 175 201 6,100  Level Chicago Center
11:00AM 41.9128 -84.6734 248° West  Level FlightAware Approximate
11:00AM 41.8706 -84.8658 248° West 175 201 6,100  Level Chicago Center
11:01AM 41.8977 -84.7248 249° West  Level FlightAware Approximate
11:01AM 41.8528 -84.9267 249° West 175 201 6,100  Level Chicago Center
11:02AM 41.8590 -84.7618 250° West  Level FlightAware Approximate
11:02AM 41.8356 -84.9864 249° West 174 200 6,100  Level Chicago Center
11:03AM 41.8175 -85.0469 248° West 175 201 6,100  Level Chicago Center
11:04AM 41.8000 -85.1075 249° West 174 200 6,100  Level Chicago Center
11:05AM 41.7786 -85.1806 249° West 176 203 6,100  Level Chicago Center
11:06AM 41.7614 -85.2403 249° West 175 201 6,100  Level Chicago Center
11:07AM 41.7431 -85.3008 248° West 176 203 6,100  Level Chicago Center
11:08AM 41.7258 -85.3608 249° West 175 201 6,100  Level Chicago Center
11:09AM 41.7075 -85.4203 248° West 175 201 6,100  Level Chicago Center
11:10AM 41.6867 -85.4917 249° West 176 203 6,100  Level Chicago Center
11:12AM 41.6686 -85.5508 248° West 174 200 6,100  Level Chicago Center
11:13AM 41.6508 -85.6119 249° West 177 204 6,100  Level Chicago Center
11:14AM 41.6328 -85.6706 248° West 174 200 6,100  Level Chicago Center
11:15AM 41.6147 -85.7303 248° West 173 199 6,100  Level Chicago Center
11:16AM 41.5931 -85.8019 248° West 173 199 6,100  Level Chicago Center
11:17AM 41.5750 -85.8611 248° West 174 200 6,100  Level Chicago Center
11:18AM 41.5572 -85.9222 249° West 176 203 6,100  Level Chicago Center
11:19AM 41.5389 -85.9819 248° West 175 201 6,100  Level Chicago Center
11:20AM 41.5233 -86.0425 251° West 174 200 6,100  Level Chicago Center
11:21AM 41.5247 -86.1186 271° West 171 197 6,100  Level Chicago Center
11:22AM 41.5239 -86.1808 269° West 170 196 6,100  Level Chicago Center
11:23AM 41.5233 -86.2436 269° West 170 196 6,100  Level Chicago Center
11:24AM 41.5236 -86.3075 270° West 171 197 6,100  Level Chicago Center
11:25AM 41.5225 -86.3692 269° West 169 194 6,100  Level Chicago Center
11:26AM 41.5239 -86.4322 272° West 171 197 6,100  Level Chicago Center
11:27AM 41.5219 -86.5078 268° West 170 196 6,100  Level Chicago Center
11:28AM 41.5217 -86.5706 270° West 169 194 6,100  Level Chicago Center
11:29AM 41.5217 -86.6331 270° West 170 196 6,100  Level Chicago Center
11:30AM 41.5211 -86.6964 269° West 170 196 6,100  Level Chicago Center
11:31AM 41.5208 -86.7650 270° West 170 196 6,100  Level Chicago Center
11:32AM 41.5200 -86.8272 269° West 170 196 6,100  Level Chicago Center
11:33AM 41.5192 -86.8900 269° West 170 196 6,100  Level Chicago Center
11:34AM 41.5211 -86.9528 272° West 171 197 6,100  Level Chicago Center
11:35AM 41.5383 -87.0228 288° West 166 191 6,100 -60 Level Chicago Center
11:36AM 41.5525 -87.0814 288° West 166 191 6,000 -60 Descending Chicago Center
11:37AM 41.5664 -87.1419 287° West 170 196 6,000  Level Chicago Center
11:38AM 41.5786 -87.2022 285° West 170 196 6,000  Level Chicago Center
11:39AM 41.5917 -87.2617 286° West 169 194 6,000 -180 Level Chicago Center
11:40AM 41.6081 -87.3339 287° West 169 194 5,700 -420 Descending Chicago Center
11:42AM 41.6225 -87.3981 287° West 177 204 5,200 -540 Descending Chicago Center
11:43AM 41.6356 -87.4619 285° West 179 206 4,700 -540 Descending Chicago Center
11:44AM 41.6497 -87.5264 286° West 180 207 4,200 -360 Descending Chicago Center
11:45AM 41.6636 -87.5878 287° West 178 205 4,000 -600 Descending Chicago Center
11:46AM 41.7011 -87.6375 315° West 166 191 3,000 -900 Descending Chicago Center
11:47AM 41.7278 -87.6722 316° Northwest 153 176 2,200 -720 Descending Chicago Center
11:48AM 41.7469 -87.7003 312° West 126 145 1,600 -540 Descending Chicago Center
11:49AM 41.7694 -87.7325 313° West 117 135 1,100 -540 Descending Chicago Center